Time;durP1;ratioP1;P1;durP2;ratioP2;P2;SDS_P1;SDS_P2;PMS_P1;PMS_P2;Temp;Humidity;BMP_temperature;BMP_pressure;BME280_temperature;BME280_humidity;BME280_pressure;Samples;Min_cycle;Max_cycle;Signal;HPM_P1;HPM_P2
2022/11/28 00:00:38;;;;;;;6.50;4.45;;;9.90;99.90;;;;;;2077351;28;20052;-71
2022/11/28 00:01:44;;;;;;;4.95;4.35;;;9.90;99.90;;;;;;2077544;28;20029;-71
2022/11/28 00:02:44;;;;;;;5.28;4.28;;;9.90;99.90;;;;;;2077612;28;20033;-71
2022/11/28 00:03:45;;;;;;;8.68;4.47;;;9.90;99.90;;;;;;2077308;28;20111;-71
2022/11/28 00:04:50;;;;;;;10.15;4.55;;;9.80;99.90;;;;;;2076391;28;20064;-71
2022/11/28 00:05:51;;;;;;;6.35;4.75;;;9.80;99.90;;;;;;2078472;28;20022;-71
2022/11/28 00:06:53;;;;;;;5.47;4.30;;;9.80;99.90;;;;;;2073987;28;20493;-71
2022/11/28 00:07:54;;;;;;;5.35;4.25;;;9.90;99.90;;;;;;2076435;28;20021;-71
2022/11/28 00:08:57;;;;;;;5.60;4.30;;;9.80;99.90;;;;;;2076013;28;20045;-71
2022/11/28 00:09:58;;;;;;;6.93;4.65;;;9.90;99.90;;;;;;2076792;28;20413;-71
2022/11/28 00:11:12;;;;;;;6.35;4.75;;;9.80;99.90;;;;;;2082245;28;20021;-71
2022/11/28 00:12:13;;;;;;;4.78;4.20;;;9.80;99.90;;;;;;2083795;28;20107;-71
2022/11/28 00:13:13;;;;;;;6.43;4.22;;;9.80;99.90;;;;;;2075701;28;20041;-71
2022/11/28 00:14:16;;;;;;;5.25;4.45;;;9.70;99.90;;;;;;2075839;28;20026;-71
2022/11/28 00:15:16;;;;;;;6.38;4.90;;;9.80;99.90;;;;;;2076733;28;20484;-71
2022/11/28 00:16:22;;;;;;;8.63;5.20;;;9.80;99.90;;;;;;2074994;28;20028;-71
2022/11/28 00:17:23;;;;;;;5.88;4.35;;;9.80;99.90;;;;;;2079157;28;20075;-71
2022/11/28 00:18:24;;;;;;;5.95;4.20;;;9.70;99.90;;;;;;2085341;28;20062;-71
2022/11/28 00:19:24;;;;;;;7.75;4.93;;;9.70;99.90;;;;;;2085741;28;20040;-71
2022/11/28 00:20:25;;;;;;;6.90;4.57;;;9.70;99.90;;;;;;2077099;28;20032;-71
2022/11/28 00:21:26;;;;;;;6.63;4.90;;;9.70;99.90;;;;;;2083407;28;20116;-71
2022/11/28 00:22:28;;;;;;;6.13;4.80;;;9.60;99.90;;;;;;2082955;28;20031;-71
2022/11/28 00:23:29;;;;;;;8.23;4.93;;;9.60;99.90;;;;;;2076715;28;20033;-71
2022/11/28 00:24:29;;;;;;;6.72;4.53;;;9.60;99.90;;;;;;2077996;28;20039;-71
2022/11/28 00:25:30;;;;;;;6.32;4.35;;;9.60;99.90;;;;;;2074908;28;20034;-71
2022/11/28 00:26:36;;;;;;;7.28;4.75;;;9.60;99.90;;;;;;2077394;28;20037;-71
2022/11/28 00:27:36;;;;;;;6.15;4.45;;;9.60;99.90;;;;;;2077373;28;20056;-71
2022/11/28 00:28:37;;;;;;;6.05;4.68;;;9.60;99.90;;;;;;2077647;28;20021;-71
2022/11/28 00:29:38;;;;;;;5.70;4.47;;;9.60;99.90;;;;;;2076734;28;20071;-71
2022/11/28 00:30:39;;;;;;;5.45;4.45;;;9.60;99.90;;;;;;2078625;28;20049;-71
2022/11/28 00:31:41;;;;;;;5.35;4.85;;;9.60;99.90;;;;;;2076265;28;20029;-71
2022/11/28 00:32:41;;;;;;;6.85;4.10;;;9.60;99.90;;;;;;2075625;28;20021;-71
2022/11/28 00:33:42;;;;;;;6.00;4.45;;;9.60;99.90;;;;;;2077771;28;20918;-71
2022/11/28 00:34:43;;;;;;;7.90;4.85;;;9.60;99.90;;;;;;2074849;28;20051;-71
2022/11/28 00:35:43;;;;;;;5.53;4.47;;;9.60;99.90;;;;;;2077437;28;20029;-71
2022/11/28 00:36:46;;;;;;;5.70;4.53;;;9.60;99.90;;;;;;2078555;28;20029;-71
2022/11/28 00:37:46;;;;;;;6.70;4.60;;;9.60;99.90;;;;;;2078329;28;20132;-71
2022/11/28 00:38:48;;;;;;;7.90;4.63;;;9.60;99.90;;;;;;2075895;28;20486;-71
2022/11/28 00:39:48;;;;;;;8.95;4.68;;;9.60;99.90;;;;;;2083674;28;20016;-71
2022/11/28 00:41:04;;;;;;;6.10;4.70;;;9.60;99.90;;;;;;2083100;28;20603;-71
2022/11/28 00:42:05;;;;;;;5.82;5.00;;;9.60;99.90;;;;;;2083214;28;20025;-71
2022/11/28 00:43:05;;;;;;;5.25;4.43;;;9.50;99.90;;;;;;2082248;28;20025;-71
2022/11/28 00:44:06;;;;;;;5.80;4.82;;;9.50;99.90;;;;;;2074592;28;20025;-71
2022/11/28 00:45:07;;;;;;;6.50;4.55;;;9.50;99.90;;;;;;2077197;28;20032;-71
2022/11/28 00:46:08;;;;;;;6.43;4.85;;;9.50;99.90;;;;;;2075544;28;20044;-71
2022/11/28 00:47:09;;;;;;;6.00;4.30;;;9.50;99.90;;;;;;2077658;28;20705;-71
2022/11/28 00:48:09;;;;;;;6.63;5.38;;;9.50;99.90;;;;;;2075709;28;20817;-71
2022/11/28 00:49:10;;;;;;;6.20;5.60;;;9.50;99.90;;;;;;2076925;28;20588;-71
2022/11/28 00:50:10;;;;;;;6.60;4.97;;;9.50;99.90;;;;;;2077155;28;20465;-71
2022/11/28 00:51:22;;;;;;;5.35;4.82;;;9.50;99.90;;;;;;2077856;28;20475;-71
2022/11/28 00:52:23;;;;;;;5.75;4.90;;;9.50;99.90;;;;;;2076357;28;20033;-71
2022/11/28 00:53:23;;;;;;;8.05;4.78;;;9.50;99.90;;;;;;2076235;28;20014;-71
2022/11/28 00:54:24;;;;;;;6.57;4.93;;;9.50;99.90;;;;;;2076108;28;20055;-71
2022/11/28 00:55:24;;;;;;;7.25;5.10;;;9.50;99.90;;;;;;2077007;28;20025;-71
2022/11/28 00:56:28;;;;;;;9.18;4.93;;;9.50;99.90;;;;;;2075779;28;20021;-71
2022/11/28 00:57:28;;;;;;;5.40;4.85;;;9.50;99.90;;;;;;2077270;28;20024;-71
2022/11/28 00:58:29;;;;;;;5.70;5.05;;;9.60;99.90;;;;;;2077576;28;20152;-71
2022/11/28 00:59:29;;;;;;;5.25;4.75;;;9.50;99.90;;;;;;2076519;28;20041;-71
2022/11/28 01:00:30;;;;;;;6.07;4.50;;;9.50;99.90;;;;;;2076994;28;20572;-71
2022/11/28 01:01:34;;;;;;;6.32;5.28;;;9.50;99.90;;;;;;2076508;28;20033;-71
2022/11/28 01:02:35;;;;;;;5.32;4.82;;;9.50;99.90;;;;;;2077257;28;20056;-71
2022/11/28 01:03:36;;;;;;;5.85;5.20;;;9.50;99.90;;;;;;2075142;28;20028;-71
2022/11/28 01:04:36;;;;;;;5.85;5.00;;;9.50;99.90;;;;;;2076614;28;20065;-71
2022/11/28 01:05:42;;;;;;;6.20;4.80;;;9.50;99.90;;;;;;2077499;28;20032;-71
2022/11/28 01:06:48;;;;;;;5.80;5.20;;;9.50;99.90;;;;;;2076597;28;20433;-71
2022/11/28 01:07:48;;;;;;;5.45;4.63;;;9.50;99.90;;;;;;2076046;28;20029;-71
2022/11/28 01:08:50;;;;;;;5.35;4.50;;;9.50;99.90;;;;;;2077119;28;20077;-71
2022/11/28 01:09:50;;;;;;;6.40;4.75;;;9.50;99.90;;;;;;2075766;28;20126;-71
2022/11/28 01:10:50;;;;;;;5.95;5.00;;;9.50;99.90;;;;;;2075498;28;20018;-71
2022/11/28 01:11:52;;;;;;;7.30;5.25;;;9.40;99.90;;;;;;2073783;28;20128;-71
2022/11/28 01:12:53;;;;;;;5.50;4.40;;;9.40;99.90;;;;;;2077597;28;20017;-71
2022/11/28 01:13:55;;;;;;;6.28;4.60;;;9.40;99.90;;;;;;2078283;28;20029;-72
2022/11/28 01:14:57;;;;;;;5.38;4.47;;;9.40;99.90;;;;;;2074489;28;20017;-71
2022/11/28 01:15:57;;;;;;;7.03;5.10;;;9.40;99.90;;;;;;2077691;28;20028;-71
2022/11/28 01:16:58;;;;;;;6.80;4.75;;;9.40;99.90;;;;;;2074681;28;20030;-71
2022/11/28 01:17:58;;;;;;;7.03;5.20;;;9.40;99.90;;;;;;2084950;28;20028;-71
2022/11/28 01:18:59;;;;;;;6.68;5.10;;;9.40;99.90;;;;;;2085824;28;20116;-71
2022/11/28 01:19:59;;;;;;;7.82;5.00;;;9.40;99.90;;;;;;2075089;28;20425;-72
2022/11/28 01:21:00;;;;;;;6.18;4.68;;;9.40;99.90;;;;;;2075896;28;20064;-71
2022/11/28 01:22:00;;;;;;;7.85;5.30;;;9.30;99.90;;;;;;2077292;28;20016;-71
2022/11/28 01:23:01;;;;;;;5.28;4.55;;;9.40;99.90;;;;;;2077256;28;20148;-71
2022/11/28 01:24:02;;;;;;;5.10;4.30;;;9.30;99.90;;;;;;2076913;28;20188;-71
2022/11/28 01:25:03;;;;;;;6.90;5.07;;;9.30;99.90;;;;;;2066477;28;20089;-71
2022/11/28 01:26:05;;;;;;;7.53;4.80;;;9.30;99.90;;;;;;2077001;28;20055;-71
2022/11/28 01:27:07;;;;;;;5.80;5.05;;;9.30;99.90;;;;;;2077577;28;20024;-71
2022/11/28 01:28:07;;;;;;;6.65;5.18;;;9.30;99.90;;;;;;2076184;28;20057;-71
2022/11/28 01:29:08;;;;;;;6.03;4.88;;;9.30;99.90;;;;;;2075531;28;20043;-71
2022/11/28 01:30:08;;;;;;;8.68;5.50;;;9.30;99.90;;;;;;2076681;28;20030;-72
2022/11/28 01:31:12;;;;;;;8.43;4.95;;;9.30;99.90;;;;;;2075457;28;20140;-71
2022/11/28 01:32:13;;;;;;;6.30;5.32;;;9.20;99.90;;;;;;2077034;28;20061;-71
2022/11/28 01:33:14;;;;;;;5.38;4.88;;;9.30;99.90;;;;;;2077063;28;20527;-71
2022/11/28 01:34:15;;;;;;;5.82;4.63;;;9.20;99.90;;;;;;2075262;28;20436;-71
2022/11/28 01:35:16;;;;;;;6.78;5.13;;;9.20;99.90;;;;;;2075039;28;20045;-71
2022/11/28 01:36:17;;;;;;;6.13;5.30;;;9.30;99.90;;;;;;2075508;28;20026;-71
2022/11/28 01:37:18;;;;;;;6.75;5.32;;;9.30;99.90;;;;;;2077805;28;20025;-71
2022/11/28 01:38:18;;;;;;;5.53;4.97;;;9.20;99.90;;;;;;2076302;28;20030;-71
2022/11/28 01:39:19;;;;;;;6.95;5.20;;;9.20;99.90;;;;;;2075224;28;20103;-71
2022/11/28 01:40:20;;;;;;;7.05;4.88;;;9.20;99.90;;;;;;2076567;28;20113;-71
2022/11/28 01:41:24;;;;;;;7.13;5.15;;;9.20;99.90;;;;;;2076773;28;20029;-71
2022/11/28 01:42:24;;;;;;;5.50;5.00;;;9.20;99.90;;;;;;2076250;28;20611;-71
2022/11/28 01:43:25;;;;;;;5.32;4.63;;;9.20;99.90;;;;;;2076331;28;20037;-71
2022/11/28 01:44:26;;;;;;;5.80;5.00;;;9.20;99.90;;;;;;2076800;28;20029;-71
2022/11/28 01:45:31;;;;;;;7.25;5.00;;;9.20;99.90;;;;;;2077142;28;20104;-71
2022/11/28 01:46:32;;;;;;;6.18;4.68;;;9.20;99.90;;;;;;2074484;28;20095;-71
2022/11/28 01:47:34;;;;;;;5.50;4.95;;;9.20;99.90;;;;;;2076186;28;20104;-71
2022/11/28 01:48:41;;;;;;;8.50;5.35;;;9.20;99.90;;;;;;2075922;28;20057;-71
2022/11/28 01:49:43;;;;;;;6.88;5.25;;;9.20;99.90;;;;;;2075998;28;20091;-71
2022/11/28 01:50:48;;;;;;;6.07;4.63;;;9.20;99.90;;;;;;2077846;28;20362;-71
2022/11/28 01:51:57;;;;;;;5.50;5.00;;;9.30;99.90;;;;;;2082763;28;20025;-71
2022/11/28 01:53:03;;;;;;;5.13;4.45;;;9.30;99.90;;;;;;2082148;28;20068;-71
2022/11/28 01:54:03;;;;;;;6.10;5.50;;;9.20;99.90;;;;;;2076399;28;20035;-71
2022/11/28 01:55:05;;;;;;;8.23;5.25;;;9.20;99.90;;;;;;2076388;28;20032;-71
2022/11/28 01:56:16;;;;;;;5.45;4.80;;;9.20;99.90;;;;;;2075702;28;20029;-71
2022/11/28 01:57:22;;;;;;;6.88;4.85;;;9.20;99.90;;;;;;2083035;28;20053;-71
2022/11/28 01:58:24;;;;;;;6.60;5.10;;;9.30;99.90;;;;;;2084453;28;20029;-71
2022/11/28 01:59:28;;;;;;;7.82;5.13;;;9.20;99.90;;;;;;2075886;28;20068;-72
2022/11/28 02:00:29;;;;;;;5.78;4.95;;;9.20;99.90;;;;;;2078245;28;20540;-71
2022/11/28 02:01:29;;;;;;;5.68;4.65;;;9.20;99.90;;;;;;2079290;28;20503;-71
2022/11/28 02:02:44;;;;;;;6.03;5.03;;;9.20;99.90;;;;;;2078365;28;20033;-71
2022/11/28 02:03:49;;;;;;;6.30;4.75;;;9.20;99.90;;;;;;2078662;28;20047;-71
2022/11/28 02:04:49;;;;;;;6.20;4.75;;;9.20;99.90;;;;;;2077986;28;20033;-71
2022/11/28 02:05:51;;;;;;;6.13;5.03;;;9.20;99.90;;;;;;2079074;28;20022;-71
2022/11/28 02:06:53;;;;;;;7.65;5.43;;;9.20;99.90;;;;;;2079148;28;20029;-71
2022/11/28 02:07:53;;;;;;;7.72;5.13;;;9.20;99.90;;;;;;2076489;28;20131;-72
2022/11/28 02:08:54;;;;;;;6.18;4.72;;;9.20;99.90;;;;;;2077839;28;20059;-71
2022/11/28 02:09:55;;;;;;;7.07;4.85;;;9.20;99.90;;;;;;2075719;28;20478;-71
2022/11/28 02:11:02;;;;;;;6.55;5.47;;;9.20;99.90;;;;;;2076057;28;20512;-72
2022/11/28 02:12:26;;;;;;;7.40;5.30;;;9.20;99.90;;;;;;2078937;28;20063;-71
2022/11/28 02:13:45;;;;;;;7.47;5.20;;;9.20;99.90;;;;;;2078788;28;20017;-71
2022/11/28 02:15:00;;;;;;;6.47;5.22;;;9.20;99.90;;;;;;2077705;28;20021;-72
2022/11/28 02:16:32;;;;;;;5.60;5.05;;;9.20;99.90;;;;;;2078186;28;20080;-71
2022/11/28 02:18:12;;;;;;;5.90;5.30;;;9.20;99.90;;;;;;2077968;28;20048;-71
2022/11/28 02:19:41;;;;;;;6.80;5.95;;;9.20;99.90;;;;;;2070466;28;20026;-71
2022/11/28 02:21:12;;;;;;;4.78;4.03;;;9.20;99.90;;;;;;2078599;28;20123;-71
2022/11/28 02:22:22;;;;;;;6.15;5.53;;;9.10;99.90;;;;;;2075008;28;20030;-71
2022/11/28 02:23:32;;;;;;;6.20;5.28;;;9.20;99.90;;;;;;2076751;28;20111;-72
2022/11/28 02:24:45;;;;;;;6.38;5.15;;;9.10;99.90;;;;;;2078073;28;20137;-72
2022/11/28 02:25:54;;;;;;;8.15;5.35;;;9.10;99.90;;;;;;2077411;28;20698;-71
2022/11/28 02:27:03;;;;;;;6.40;4.90;;;9.10;99.90;;;;;;2078288;28;20083;-71
2022/11/28 02:28:28;;;;;;;6.38;5.30;;;9.20;99.90;;;;;;2078115;28;20528;-71
2022/11/28 02:29:47;;;;;;;5.80;5.20;;;9.20;99.90;;;;;;2076831;28;20034;-71
2022/11/28 02:31:18;;;;;;;5.63;4.78;;;9.20;99.90;;;;;;2078112;28;20661;-71
2022/11/28 02:32:47;;;;;;;6.18;5.63;;;9.10;99.90;;;;;;2077658;28;20678;-71
2022/11/28 02:34:01;;;;;;;6.32;5.20;;;9.10;99.90;;;;;;2078334;28;20584;-71
2022/11/28 02:35:14;;;;;;;6.22;5.30;;;9.10;99.90;;;;;;2077364;28;20025;-71
2022/11/28 02:36:19;;;;;;;7.32;5.60;;;9.10;99.90;;;;;;2076593;28;20113;-71
2022/11/28 02:37:45;;;;;;;6.30;5.70;;;9.10;99.90;;;;;;2078326;28;20057;-71
2022/11/28 02:38:58;;;;;;;6.00;5.32;;;9.20;99.90;;;;;;2076709;28;20028;-71
2022/11/28 02:40:19;;;;;;;6.18;5.03;;;9.20;99.90;;;;;;2086317;28;20660;-71
2022/11/28 02:41:53;;;;;;;5.68;4.88;;;9.20;99.90;;;;;;2084557;28;20548;-71
2022/11/28 02:43:24;;;;;;;8.68;5.43;;;9.20;99.90;;;;;;2078371;28;20044;-72
2022/11/28 02:44:39;;;;;;;7.13;5.10;;;9.20;99.90;;;;;;2078084;28;20030;-71
2022/11/28 02:45:52;;;;;;;5.20;4.75;;;9.20;99.90;;;;;;2077596;28;20029;-71
2022/11/28 02:47:03;;;;;;;6.22;4.40;;;9.20;99.90;;;;;;2078109;28;20034;-71
2022/11/28 02:48:09;;;;;;;7.57;5.30;;;9.20;99.90;;;;;;2077639;28;20065;-71
2022/11/28 02:49:30;;;;;;;6.47;5.40;;;9.20;99.90;;;;;;2078305;28;20500;-71
2022/11/28 02:50:41;;;;;;;5.95;5.30;;;9.20;99.90;;;;;;2076275;28;20800;-71
2022/11/28 02:51:47;;;;;;;7.55;5.75;;;9.20;99.90;;;;;;2077919;28;20382;-71
2022/11/28 02:52:52;;;;;;;6.03;5.43;;;9.30;99.90;;;;;;2079191;28;20810;-71
2022/11/28 02:53:54;;;;;;;6.10;5.22;;;9.30;99.90;;;;;;2076585;28;20014;-71
2022/11/28 02:54:55;;;;;;;6.43;5.82;;;9.30;99.90;;;;;;2076784;28;20052;-71
2022/11/28 02:55:58;;;;;;;6.97;6.22;;;9.30;99.90;;;;;;2076316;28;20107;-71
2022/11/28 02:56:58;;;;;;;6.28;5.30;;;9.30;99.90;;;;;;2076773;28;20053;-71
2022/11/28 02:57:59;;;;;;;7.10;5.35;;;9.30;99.90;;;;;;2077099;28;20029;-71
2022/11/28 02:59:00;;;;;;;6.75;5.18;;;9.40;99.90;;;;;;2076719;28;20033;-71
2022/11/28 03:00:00;;;;;;;5.55;4.65;;;9.40;99.90;;;;;;2078449;28;20041;-72
2022/11/28 03:01:02;;;;;;;5.45;4.95;;;9.40;99.90;;;;;;2075295;28;20037;-71
2022/11/28 03:02:24;;;;;;;8.63;5.07;;;9.40;99.90;;;;;;2077492;28;20018;-71
2022/11/28 03:03:35;;;;;;;8.07;5.38;;;9.40;99.90;;;;;;2077137;28;20029;-71
2022/11/28 03:04:58;;;;;;;6.20;5.53;;;9.40;99.90;;;;;;2076329;28;20018;-71
2022/11/28 03:06:29;;;;;;;6.38;5.55;;;9.40;99.90;;;;;;2075537;28;20477;-71
2022/11/28 03:07:32;;;;;;;7.32;6.18;;;9.30;99.90;;;;;;2076052;28;20033;-71
2022/11/28 03:08:57;;;;;;;5.90;5.10;;;9.30;99.90;;;;;;2076984;28;20037;-71
2022/11/28 03:10:06;;;;;;;7.15;5.10;;;9.30;99.90;;;;;;2078532;28;20021;-71
2022/11/28 03:11:19;;;;;;;6.97;5.55;;;9.30;99.90;;;;;;2077310;28;20028;-71
2022/11/28 03:12:28;;;;;;;6.68;5.20;;;9.30;99.90;;;;;;2075725;28;20029;-71
2022/11/28 03:14:00;;;;;;;7.10;5.00;;;9.30;99.90;;;;;;2076815;28;20033;-71
2022/11/28 03:15:06;;;;;;;7.72;4.97;;;9.30;99.90;;;;;;2076935;28;20253;-71
2022/11/28 03:16:33;;;;;;;6.55;5.70;;;9.30;99.90;;;;;;2083050;28;20067;-71
2022/11/28 03:17:45;;;;;;;5.90;4.88;;;9.30;99.90;;;;;;2081160;28;20022;-71
2022/11/28 03:19:12;;;;;;;6.35;5.38;;;9.30;99.90;;;;;;2077907;28;20057;-71
2022/11/28 03:20:38;;;;;;;5.70;5.13;;;9.40;99.90;;;;;;2075232;28;20456;-71
2022/11/28 03:21:51;;;;;;;8.18;5.50;;;9.40;99.90;;;;;;2075874;28;20069;-71
2022/11/28 03:23:06;;;;;;;7.13;5.05;;;9.40;99.90;;;;;;2077271;28;20396;-71
2022/11/28 03:24:33;;;;;;;6.03;5.05;;;9.40;99.90;;;;;;2078517;28;20040;-71
2022/11/28 03:25:48;;;;;;;6.28;5.50;;;9.40;99.90;;;;;;2075346;28;20052;-71
2022/11/28 03:27:00;;;;;;;6.72;4.90;;;9.40;99.90;;;;;;2077320;28;20716;-71
2022/11/28 03:28:10;;;;;;;5.90;5.18;;;9.40;99.90;;;;;;2078457;28;20028;-71
2022/11/28 03:29:17;;;;;;;5.90;5.13;;;9.40;99.90;;;;;;2078689;28;20025;-71
2022/11/28 03:30:26;;;;;;;5.50;5.00;;;9.40;99.90;;;;;;2076986;28;20666;-71
2022/11/28 03:31:40;;;;;;;5.55;5.05;;;9.40;99.90;;;;;;2078499;28;20022;-71
2022/11/28 03:32:44;;;;;;;5.68;4.82;;;9.40;99.90;;;;;;2078949;28;20017;-71
2022/11/28 03:33:50;;;;;;;5.60;4.90;;;9.40;99.90;;;;;;2077223;28;20109;-71
2022/11/28 03:34:58;;;;;;;5.65;4.88;;;9.50;99.90;;;;;;2076929;28;20032;-71
2022/11/28 03:36:13;;;;;;;6.95;5.40;;;9.50;99.90;;;;;;2077147;28;20445;-71
2022/11/28 03:37:20;;;;;;;5.68;4.90;;;9.50;99.90;;;;;;2078839;28;20026;-71
2022/11/28 03:38:30;;;;;;;5.57;5.07;;;9.50;99.90;;;;;;2077689;28;20032;-71
2022/11/28 03:39:38;;;;;;;6.43;5.13;;;9.50;99.90;;;;;;2077953;28;20029;-71
2022/11/28 03:40:43;;;;;;;6.32;5.38;;;9.50;99.90;;;;;;2078320;28;20034;-71
2022/11/28 03:42:11;;;;;;;7.82;5.55;;;9.50;99.90;;;;;;2077178;28;20037;-71
2022/11/28 03:43:17;;;;;;;5.47;4.65;;;9.50;99.90;;;;;;2076863;28;20120;-71
2022/11/28 03:44:25;;;;;;;5.05;4.63;;;9.50;99.90;;;;;;2077369;28;20032;-71
2022/11/28 03:45:30;;;;;;;8.43;4.60;;;9.50;99.90;;;;;;2078047;28;20021;-71
2022/11/28 03:46:37;;;;;;;6.85;5.63;;;9.50;99.90;;;;;;2077032;28;20041;-71
2022/11/28 03:47:42;;;;;;;6.90;4.97;;;9.50;99.90;;;;;;2076557;28;20091;-71
2022/11/28 03:48:47;;;;;;;5.28;4.85;;;9.50;99.90;;;;;;2078754;28;20026;-71
2022/11/28 03:49:52;;;;;;;5.32;4.80;;;9.50;99.90;;;;;;2076180;28;20017;-71
2022/11/28 03:50:59;;;;;;;6.28;5.18;;;9.50;99.90;;;;;;2075002;28;20029;-71
2022/11/28 03:52:06;;;;;;;8.35;4.93;;;9.50;99.90;;;;;;2076871;28;20026;-71
2022/11/28 03:53:21;;;;;;;8.13;5.40;;;9.50;99.90;;;;;;2076994;28;20493;-71
2022/11/28 03:54:31;;;;;;;6.32;5.38;;;9.50;99.90;;;;;;2077932;28;20034;-71
2022/11/28 03:55:38;;;;;;;5.25;4.75;;;9.50;99.90;;;;;;2085091;28;20033;-71
2022/11/28 03:56:56;;;;;;;6.47;5.13;;;9.50;99.90;;;;;;2083920;28;20025;-71
2022/11/28 03:58:07;;;;;;;5.45;4.95;;;9.50;99.90;;;;;;2077974;28;20431;-71
2022/11/28 03:59:18;;;;;;;5.95;5.10;;;9.50;99.90;;;;;;2077803;28;20045;-71
2022/11/28 04:00:19;;;;;;;5.25;4.53;;;9.50;99.90;;;;;;2077586;28;20028;-71
2022/11/28 04:01:27;;;;;;;6.50;5.45;;;9.50;99.90;;;;;;2077362;28;20022;-71
2022/11/28 04:02:49;;;;;;;6.65;4.78;;;9.50;99.90;;;;;;2076328;28;20454;-71
2022/11/28 04:03:53;;;;;;;6.43;5.03;;;9.50;99.90;;;;;;2076311;28;20022;-71
2022/11/28 04:05:23;;;;;;;6.63;4.57;;;9.50;99.90;;;;;;2076484;28;20033;-71
2022/11/28 04:06:33;;;;;;;;;;;9.50;99.90;;;;;;2077799;28;20021;-71
2022/11/28 04:07:47;;;;;;;5.22;4.30;;;9.40;99.90;;;;;;2076480;28;20027;-71
2022/11/28 04:08:57;;;;;;;6.53;4.88;;;9.40;99.90;;;;;;2076473;28;20030;-71
2022/11/28 04:10:16;;;;;;;6.50;4.95;;;9.40;99.90;;;;;;2076420;28;20371;-71
2022/11/28 04:11:23;;;;;;;7.28;5.40;;;9.40;99.90;;;;;;2076115;28;20041;-72
2022/11/28 04:12:52;;;;;;;6.13;5.53;;;9.40;99.90;;;;;;2078204;28;20112;-71
2022/11/28 04:14:20;;;;;;;5.30;4.80;;;9.40;99.90;;;;;;2078841;28;20025;-71
2022/11/28 04:15:44;;;;;;;5.22;4.63;;;9.40;99.90;;;;;;2085267;28;20400;-71
2022/11/28 04:16:51;;;;;;;6.07;5.47;;;9.40;99.90;;;;;;2075488;28;20148;-71
2022/11/28 04:18:29;;;;;;;5.97;5.25;;;9.40;99.90;;;;;;2076506;28;20034;-71
2022/11/28 04:19:42;;;;;;;4.95;4.45;;;9.40;99.90;;;;;;2074377;28;20061;-71
2022/11/28 04:21:01;;;;;;;7.85;4.65;;;9.40;99.90;;;;;;2076333;28;20038;-71
2022/11/28 04:22:25;;;;;;;4.95;4.40;;;9.40;99.90;;;;;;2076684;28;20056;-71
2022/11/28 04:23:26;;;;;;;6.03;4.60;;;9.40;99.90;;;;;;2078396;28;20029;-71
2022/11/28 04:24:52;;;;;;;6.05;4.80;;;9.40;99.90;;;;;;2077009;28;20393;-71
2022/11/28 04:26:03;;;;;;;5.53;4.95;;;9.40;99.90;;;;;;2073016;28;20582;-71
2022/11/28 04:27:08;;;;;;;5.50;4.95;;;9.40;99.90;;;;;;2077233;28;20049;-71
2022/11/28 04:28:17;;;;;;;6.45;5.03;;;9.40;99.90;;;;;;2077979;28;20021;-71
2022/11/28 04:29:22;;;;;;;5.47;4.50;;;9.40;99.90;;;;;;2077884;28;20017;-71
2022/11/28 04:30:22;;;;;;;6.93;4.78;;;9.40;99.90;;;;;;2075244;28;20025;-71
2022/11/28 04:31:25;;;;;;;6.68;4.70;;;9.40;99.90;;;;;;2076597;28;20026;-71
2022/11/28 04:32:28;;;;;;;6.15;4.75;;;9.40;99.90;;;;;;2075234;28;20668;-71
2022/11/28 04:33:32;;;;;;;5.60;4.97;;;9.40;99.90;;;;;;2075274;28;20077;-71
2022/11/28 04:34:35;;;;;;;5.78;4.65;;;9.40;99.90;;;;;;2075779;28;20032;-71
2022/11/28 04:35:48;;;;;;;5.28;4.75;;;9.40;99.90;;;;;;2077422;28;20064;-71
2022/11/28 04:36:50;;;;;;;6.30;4.63;;;9.40;99.90;;;;;;2078425;28;20032;-71
2022/11/28 04:37:53;;;;;;;6.40;5.00;;;9.40;99.90;;;;;;2077122;28;20536;-71
2022/11/28 04:38:56;;;;;;;5.30;4.57;;;9.40;99.90;;;;;;2077049;28;20134;-71
2022/11/28 04:39:59;;;;;;;6.00;5.05;;;9.40;99.90;;;;;;2076759;28;20017;-71
2022/11/28 04:41:12;;;;;;;5.45;4.55;;;9.40;99.90;;;;;;2074956;28;20048;-71
2022/11/28 04:42:20;;;;;;;5.50;5.00;;;9.50;99.90;;;;;;2077758;28;20441;-71
2022/11/28 04:43:26;;;;;;;5.85;4.80;;;9.40;99.90;;;;;;2078106;28;20091;-71
2022/11/28 04:44:53;;;;;;;6.05;4.47;;;9.40;99.90;;;;;;2082509;28;20028;-71
2022/11/28 04:46:03;;;;;;;4.95;4.50;;;9.40;99.90;;;;;;2079239;28;20040;-71
2022/11/28 04:47:04;;;;;;;6.70;4.53;;;9.40;99.90;;;;;;2076508;28;20044;-71
2022/11/28 04:48:06;;;;;;;4.72;4.32;;;9.40;99.90;;;;;;2077072;28;20120;-71
2022/11/28 04:49:06;;;;;;;7.28;4.80;;;9.40;99.90;;;;;;2075249;28;20025;-71
2022/11/28 04:50:08;;;;;;;6.72;4.78;;;9.40;99.90;;;;;;2074876;28;20061;-71
2022/11/28 04:51:19;;;;;;;5.75;5.15;;;9.40;99.90;;;;;;2076851;28;20033;-71
2022/11/28 04:52:34;;;;;;;6.32;4.75;;;9.40;99.90;;;;;;2076598;28;20434;-71
2022/11/28 04:53:45;;;;;;;5.80;4.80;;;9.50;99.90;;;;;;2076627;28;20028;-71
2022/11/28 04:54:45;;;;;;;4.95;4.43;;;9.50;99.90;;;;;;2076490;28;20462;-71
2022/11/28 04:55:53;;;;;;;5.93;5.03;;;9.50;99.90;;;;;;2076665;28;20696;-71
2022/11/28 04:57:16;;;;;;;7.15;4.53;;;9.50;99.90;;;;;;2075286;28;20033;-71
2022/11/28 04:58:36;;;;;;;6.78;4.57;;;9.50;99.90;;;;;;2076947;28;20167;-71
2022/11/28 04:59:40;;;;;;;5.50;5.00;;;9.50;99.90;;;;;;2077763;28;20033;-71
2022/11/28 05:00:42;;;;;;;6.40;4.25;;;9.50;99.90;;;;;;2076876;28;20029;-71
2022/11/28 05:01:44;;;;;;;7.50;4.45;;;9.50;99.90;;;;;;2077651;28;20029;-71
2022/11/28 05:02:48;;;;;;;5.57;4.82;;;9.50;99.90;;;;;;2075058;28;20029;-71
2022/11/28 05:03:49;;;;;;;4.97;4.47;;;9.50;99.90;;;;;;2082134;28;20022;-71
2022/11/28 05:04:54;;;;;;;5.15;4.60;;;9.50;99.90;;;;;;2083303;28;20021;-71
2022/11/28 05:05:55;;;;;;;5.05;4.55;;;9.50;99.90;;;;;;2078135;28;20029;-71
2022/11/28 05:07:03;;;;;;;5.75;4.85;;;9.50;99.90;;;;;;2077692;28;20115;-71
2022/11/28 05:08:04;;;;;;;5.90;4.65;;;9.50;99.90;;;;;;2084639;28;20036;-71
2022/11/28 05:09:04;;;;;;;7.03;4.85;;;9.50;99.90;;;;;;2084257;28;20028;-71
2022/11/28 05:10:06;;;;;;;5.25;4.63;;;9.50;99.90;;;;;;2077746;28;20022;-71
2022/11/28 05:11:07;;;;;;;5.18;4.68;;;9.50;99.90;;;;;;2075986;28;20477;-71
2022/11/28 05:12:07;;;;;;;5.22;4.72;;;9.50;99.90;;;;;;2077851;28;20543;-71
2022/11/28 05:13:08;;;;;;;6.35;4.82;;;9.50;99.90;;;;;;2076531;28;20036;-71
2022/11/28 05:14:09;;;;;;;6.32;4.88;;;9.50;99.90;;;;;;2077939;28;20022;-71
2022/11/28 05:15:10;;;;;;;6.50;4.82;;;9.50;99.90;;;;;;2076075;28;20030;-71
2022/11/28 05:16:14;;;;;;;5.45;4.95;;;9.50;99.90;;;;;;2074312;28;20033;-71
2022/11/28 05:17:14;;;;;;;5.90;4.68;;;9.50;99.90;;;;;;2077121;28;20030;-71
2022/11/28 05:18:15;;;;;;;5.38;4.78;;;9.50;99.90;;;;;;2076330;28;20580;-71
2022/11/28 05:19:15;;;;;;;6.18;4.55;;;9.50;99.90;;;;;;2076771;28;20044;-71
2022/11/28 05:20:16;;;;;;;5.07;4.57;;;9.50;99.90;;;;;;2076278;28;20134;-71
2022/11/28 05:21:16;;;;;;;5.13;4.47;;;9.60;99.90;;;;;;2076190;28;20033;-71
2022/11/28 05:22:17;;;;;;;5.85;4.60;;;9.60;99.90;;;;;;2073520;28;20750;-71
2022/11/28 05:23:18;;;;;;;4.95;4.18;;;9.60;99.90;;;;;;2075674;28;20033;-71
2022/11/28 05:24:18;;;;;;;6.95;4.57;;;9.60;99.90;;;;;;2075186;28;20120;-71
2022/11/28 05:25:19;;;;;;;6.65;4.78;;;9.60;99.90;;;;;;2075662;28;20144;-71
2022/11/28 05:26:20;;;;;;;5.95;4.68;;;9.60;99.90;;;;;;2076138;28;20025;-71
2022/11/28 05:27:21;;;;;;;5.68;4.28;;;9.60;99.90;;;;;;2074799;28;20047;-71
2022/11/28 05:28:21;;;;;;;5.00;4.50;;;9.60;99.90;;;;;;2075851;28;20048;-71
2022/11/28 05:29:24;;;;;;;8.75;4.82;;;9.60;99.90;;;;;;2074018;28;21948;-71
2022/11/28 05:30:24;;;;;;;5.53;4.47;;;9.70;99.90;;;;;;2074921;28;20381;-71
2022/11/28 05:31:25;;;;;;;5.80;4.97;;;9.60;99.90;;;;;;2077482;28;20021;-71
2022/11/28 05:32:30;;;;;;;5.72;4.13;;;9.70;99.90;;;;;;2075116;28;20610;-71
2022/11/28 05:33:31;;;;;;;6.28;4.70;;;9.70;99.90;;;;;;2076383;28;20014;-71
2022/11/28 05:34:32;;;;;;;6.30;4.68;;;9.70;99.90;;;;;;2075412;28;20067;-71
2022/11/28 05:35:32;;;;;;;6.63;5.25;;;9.70;99.90;;;;;;2075908;28;20032;-71
2022/11/28 05:36:33;;;;;;;6.40;4.68;;;9.70;99.90;;;;;;2076300;28;20025;-71
2022/11/28 05:37:33;;;;;;;5.65;4.65;;;9.70;99.90;;;;;;2076993;28;20017;-71
2022/11/28 05:38:34;;;;;;;6.32;4.53;;;9.70;99.90;;;;;;2077624;28;20030;-71
2022/11/28 05:39:35;;;;;;;5.57;4.97;;;9.70;99.90;;;;;;2077239;28;20025;-71
2022/11/28 05:40:42;;;;;;;7.07;5.13;;;9.60;99.90;;;;;;2075500;28;20063;-71
2022/11/28 05:41:42;;;;;;;5.10;4.60;;;9.60;99.90;;;;;;2085407;28;20040;-71
2022/11/28 05:42:43;;;;;;;4.60;4.20;;;9.60;99.90;;;;;;2084358;28;20040;-71
2022/11/28 05:43:43;;;;;;;5.70;4.60;;;9.60;99.90;;;;;;2077050;28;20124;-71
2022/11/28 05:44:44;;;;;;;5.25;4.70;;;9.70;99.90;;;;;;2077520;28;20389;-71
2022/11/28 05:45:44;;;;;;;5.60;4.97;;;9.70;99.90;;;;;;2076336;28;20020;-71
2022/11/28 05:46:45;;;;;;;7.25;5.00;;;9.60;99.90;;;;;;2076962;28;20133;-71
2022/11/28 05:47:45;;;;;;;5.35;4.85;;;9.60;99.90;;;;;;2075743;28;20030;-71
2022/11/28 05:48:46;;;;;;;6.15;4.68;;;9.60;99.90;;;;;;2075368;28;20109;-71
2022/11/28 05:49:47;;;;;;;6.82;5.30;;;9.60;99.90;;;;;;2077314;28;20075;-71
2022/11/28 05:50:49;;;;;;;6.25;4.82;;;9.60;99.90;;;;;;2075740;28;20029;-71
2022/11/28 05:51:50;;;;;;;5.25;4.75;;;9.60;99.90;;;;;;2076682;28;20037;-71